sensor_id;sensor_type;location;lat;lon;timestamp;temperature;humidity
54260;DHT22;40172;53.022;7.012;2023-05-29T00:00:07;9.00;99.90
54260;DHT22;40172;53.022;7.012;2023-05-29T00:02:36;9.00;99.90
54260;DHT22;40172;53.022;7.012;2023-05-29T00:05:01;9.00;99.90
54260;DHT22;40172;53.022;7.012;2023-05-29T00:07:29;9.00;99.90
54260;DHT22;40172;53.022;7.012;2023-05-29T00:09:55;8.90;99.90
54260;DHT22;40172;53.022;7.012;2023-05-29T00:12:21;8.90;99.90
54260;DHT22;40172;53.022;7.012;2023-05-29T00:14:48;8.90;99.90
54260;DHT22;40172;53.022;7.012;2023-05-29T00:17:15;8.90;99.90
54260;DHT22;40172;53.022;7.012;2023-05-29T00:19:42;8.80;99.90
54260;DHT22;40172;53.022;7.012;2023-05-29T00:22:07;8.80;99.90
54260;DHT22;40172;53.022;7.012;2023-05-29T00:24:33;8.80;99.90
54260;DHT22;40172;53.022;7.012;2023-05-29T00:26:58;8.80;99.90
54260;DHT22;40172;53.022;7.012;2023-05-29T00:29:24;8.70;99.90
54260;DHT22;40172;53.022;7.012;2023-05-29T00:31:50;8.70;99.90
54260;DHT22;40172;53.022;7.012;2023-05-29T00:34:22;8.70;99.90
54260;DHT22;40172;53.022;7.012;2023-05-29T00:36:48;8.70;99.90
54260;DHT22;40172;53.022;7.012;2023-05-29T00:39:14;8.70;99.90
54260;DHT22;40172;53.022;7.012;2023-05-29T00:41:39;8.70;99.90
54260;DHT22;40172;53.022;7.012;2023-05-29T00:44:05;8.70;99.90
54260;DHT22;40172;53.022;7.012;2023-05-29T00:46:31;8.70;99.90
54260;DHT22;40172;53.022;7.012;2023-05-29T00:48:59;8.60;99.90
54260;DHT22;40172;53.022;7.012;2023-05-29T00:51:25;8.60;99.90
54260;DHT22;40172;53.022;7.012;2023-05-29T00:53:53;8.60;99.90
54260;DHT22;40172;53.022;7.012;2023-05-29T00:56:19;8.60;99.90
54260;DHT22;40172;53.022;7.012;2023-05-29T00:58:50;8.60;99.90
54260;DHT22;40172;53.022;7.012;2023-05-29T01:01:18;8.60;99.90
54260;DHT22;40172;53.022;7.012;2023-05-29T01:03:43;8.50;99.90
54260;DHT22;40172;53.022;7.012;2023-05-29T01:06:10;8.50;99.90
54260;DHT22;40172;53.022;7.012;2023-05-29T01:08:36;8.40;99.90
54260;DHT22;40172;53.022;7.012;2023-05-29T01:11:13;8.40;99.90
54260;DHT22;40172;53.022;7.012;2023-05-29T01:13:46;8.30;99.90
54260;DHT22;40172;53.022;7.012;2023-05-29T01:19:35;8.30;99.90
54260;DHT22;40172;53.022;7.012;2023-05-29T01:21:51;8.30;99.90
54260;DHT22;40172;53.022;7.012;2023-05-29T01:24:32;8.30;99.90
54260;DHT22;40172;53.022;7.012;2023-05-29T01:27:07;8.30;99.90
54260;DHT22;40172;53.022;7.012;2023-05-29T01:29:39;8.30;99.90
54260;DHT22;40172;53.022;7.012;2023-05-29T01:32:05;8.20;99.90
54260;DHT22;40172;53.022;7.012;2023-05-29T01:34:31;8.20;99.90
54260;DHT22;40172;53.022;7.012;2023-05-29T01:36:57;8.20;99.90
54260;DHT22;40172;53.022;7.012;2023-05-29T01:39:23;8.20;99.90
54260;DHT22;40172;53.022;7.012;2023-05-29T01:41:49;8.20;99.90
54260;DHT22;40172;53.022;7.012;2023-05-29T01:44:16;8.20;99.90
54260;DHT22;40172;53.022;7.012;2023-05-29T01:46:42;8.20;99.90
54260;DHT22;40172;53.022;7.012;2023-05-29T01:49:10;8.20;99.90
54260;DHT22;40172;53.022;7.012;2023-05-29T01:51:36;8.10;99.90
54260;DHT22;40172;53.022;7.012;2023-05-29T01:54:02;8.10;99.90
54260;DHT22;40172;53.022;7.012;2023-05-29T01:56:29;8.10;99.90
54260;DHT22;40172;53.022;7.012;2023-05-29T01:58:56;8.10;99.90
54260;DHT22;40172;53.022;7.012;2023-05-29T02:01:22;8.00;99.90
54260;DHT22;40172;53.022;7.012;2023-05-29T02:03:48;8.00;99.90
54260;DHT22;40172;53.022;7.012;2023-05-29T02:06:14;8.00;99.90
54260;DHT22;40172;53.022;7.012;2023-05-29T02:08:40;8.00;99.90
54260;DHT22;40172;53.022;7.012;2023-05-29T02:11:05;8.00;99.90
54260;DHT22;40172;53.022;7.012;2023-05-29T02:13:31;8.00;99.90
54260;DHT22;40172;53.022;7.012;2023-05-29T02:15:57;8.00;99.90
54260;DHT22;40172;53.022;7.012;2023-05-29T02:18:23;8.00;99.90
54260;DHT22;40172;53.022;7.012;2023-05-29T02:20:48;7.90;99.90
54260;DHT22;40172;53.022;7.012;2023-05-29T02:23:14;7.90;99.90
54260;DHT22;40172;53.022;7.012;2023-05-29T02:25:41;7.90;99.90
54260;DHT22;40172;53.022;7.012;2023-05-29T02:28:07;7.80;99.90
54260;DHT22;40172;53.022;7.012;2023-05-29T02:30:32;7.80;99.90
54260;DHT22;40172;53.022;7.012;2023-05-29T02:32:58;7.80;99.90
54260;DHT22;40172;53.022;7.012;2023-05-29T02:35:23;7.80;99.90
54260;DHT22;40172;53.022;7.012;2023-05-29T02:37:50;7.80;99.90
54260;DHT22;40172;53.022;7.012;2023-05-29T02:40:16;7.80;99.90
54260;DHT22;40172;53.022;7.012;2023-05-29T02:42:42;7.80;99.90
54260;DHT22;40172;53.022;7.012;2023-05-29T02:45:07;7.80;99.90
54260;DHT22;40172;53.022;7.012;2023-05-29T02:47:33;7.80;99.90
54260;DHT22;40172;53.022;7.012;2023-05-29T02:49:59;7.80;99.90
54260;DHT22;40172;53.022;7.012;2023-05-29T02:52:24;7.80;99.90
54260;DHT22;40172;53.022;7.012;2023-05-29T02:54:50;7.70;99.90
54260;DHT22;40172;53.022;7.012;2023-05-29T02:57:15;7.60;99.90
54260;DHT22;40172;53.022;7.012;2023-05-29T02:59:41;7.60;99.90
54260;DHT22;40172;53.022;7.012;2023-05-29T03:02:07;7.70;99.90
54260;DHT22;40172;53.022;7.012;2023-05-29T03:04:33;7.70;99.90
54260;DHT22;40172;53.022;7.012;2023-05-29T03:06:58;7.70;99.90
54260;DHT22;40172;53.022;7.012;2023-05-29T03:09:24;7.70;99.90
54260;DHT22;40172;53.022;7.012;2023-05-29T03:11:49;7.70;99.90
54260;DHT22;40172;53.022;7.012;2023-05-29T03:14:16;7.70;99.90
54260;DHT22;40172;53.022;7.012;2023-05-29T03:16:43;7.60;99.90
54260;DHT22;40172;53.022;7.012;2023-05-29T03:19:09;7.60;99.90
54260;DHT22;40172;53.022;7.012;2023-05-29T03:21:35;7.60;99.90
54260;DHT22;40172;53.022;7.012;2023-05-29T03:24:01;7.60;99.90
54260;DHT22;40172;53.022;7.012;2023-05-29T03:26:28;7.60;99.90
54260;DHT22;40172;53.022;7.012;2023-05-29T03:28:54;7.60;99.90
54260;DHT22;40172;53.022;7.012;2023-05-29T03:31:20;7.60;99.90
54260;DHT22;40172;53.022;7.012;2023-05-29T03:33:47;7.60;99.90
54260;DHT22;40172;53.022;7.012;2023-05-29T03:36:13;7.60;99.90
54260;DHT22;40172;53.022;7.012;2023-05-29T03:38:38;7.60;99.90
54260;DHT22;40172;53.022;7.012;2023-05-29T03:41:04;7.60;99.90
54260;DHT22;40172;53.022;7.012;2023-05-29T03:43:29;7.60;99.90
54260;DHT22;40172;53.022;7.012;2023-05-29T03:45:55;7.60;99.90
54260;DHT22;40172;53.022;7.012;2023-05-29T03:48:20;7.60;99.90
54260;DHT22;40172;53.022;7.012;2023-05-29T03:50:46;7.60;99.90
54260;DHT22;40172;53.022;7.012;2023-05-29T03:53:12;7.60;99.90
54260;DHT22;40172;53.022;7.012;2023-05-29T03:55:38;7.60;99.90
54260;DHT22;40172;53.022;7.012;2023-05-29T03:58:03;7.60;99.90
54260;DHT22;40172;53.022;7.012;2023-05-29T04:00:29;7.60;99.90
54260;DHT22;40172;53.022;7.012;2023-05-29T04:02:55;7.60;99.90
54260;DHT22;40172;53.022;7.012;2023-05-29T04:05:21;7.70;99.90
54260;DHT22;40172;53.022;7.012;2023-05-29T04:07:47;7.70;99.90
54260;DHT22;40172;53.022;7.012;2023-05-29T04:10:12;7.70;99.90
54260;DHT22;40172;53.022;7.012;2023-05-29T04:12:38;7.80;99.90
54260;DHT22;40172;53.022;7.012;2023-05-29T04:15:04;7.90;99.90
54260;DHT22;40172;53.022;7.012;2023-05-29T04:17:30;7.90;99.90
54260;DHT22;40172;53.022;7.012;2023-05-29T04:19:56;8.00;99.90
54260;DHT22;40172;53.022;7.012;2023-05-29T04:22:21;8.00;99.90
54260;DHT22;40172;53.022;7.012;2023-05-29T04:24:47;8.10;99.90
54260;DHT22;40172;53.022;7.012;2023-05-29T04:27:13;8.10;99.90
54260;DHT22;40172;53.022;7.012;2023-05-29T04:29:39;8.20;99.90
54260;DHT22;40172;53.022;7.012;2023-05-29T04:32:08;8.20;99.90
54260;DHT22;40172;53.022;7.012;2023-05-29T04:34:37;8.30;99.90
54260;DHT22;40172;53.022;7.012;2023-05-29T04:37:04;8.40;99.90
54260;DHT22;40172;53.022;7.012;2023-05-29T04:39:30;8.50;99.90
54260;DHT22;40172;53.022;7.012;2023-05-29T04:41:56;8.60;99.90
54260;DHT22;40172;53.022;7.012;2023-05-29T04:44:24;8.70;99.90
54260;DHT22;40172;53.022;7.012;2023-05-29T04:46:54;8.80;99.90
54260;DHT22;40172;53.022;7.012;2023-05-29T04:49:21;8.90;99.90
54260;DHT22;40172;53.022;7.012;2023-05-29T04:51:47;9.00;99.90
54260;DHT22;40172;53.022;7.012;2023-05-29T04:54:13;9.10;99.90
54260;DHT22;40172;53.022;7.012;2023-05-29T04:56:38;9.20;99.90
54260;DHT22;40172;53.022;7.012;2023-05-29T04:59:06;9.30;99.90
54260;DHT22;40172;53.022;7.012;2023-05-29T05:01:32;9.40;99.90
54260;DHT22;40172;53.022;7.012;2023-05-29T05:03:59;9.60;99.90
54260;DHT22;40172;53.022;7.012;2023-05-29T05:06:25;9.70;99.90
54260;DHT22;40172;53.022;7.012;2023-05-29T05:08:51;9.80;99.90
54260;DHT22;40172;53.022;7.012;2023-05-29T05:11:18;9.90;99.90
54260;DHT22;40172;53.022;7.012;2023-05-29T05:13:43;10.00;99.90
54260;DHT22;40172;53.022;7.012;2023-05-29T05:16:09;10.00;99.90
54260;DHT22;40172;53.022;7.012;2023-05-29T05:18:36;10.10;99.90
54260;DHT22;40172;53.022;7.012;2023-05-29T05:21:01;10.20;99.90
54260;DHT22;40172;53.022;7.012;2023-05-29T05:23:29;10.30;99.90
54260;DHT22;40172;53.022;7.012;2023-05-29T05:25:55;10.30;99.90
54260;DHT22;40172;53.022;7.012;2023-05-29T05:28:20;10.40;99.90
54260;DHT22;40172;53.022;7.012;2023-05-29T05:30:46;10.50;99.90
54260;DHT22;40172;53.022;7.012;2023-05-29T05:33:12;10.50;99.90
54260;DHT22;40172;53.022;7.012;2023-05-29T05:35:37;10.60;99.90
54260;DHT22;40172;53.022;7.012;2023-05-29T05:38:03;10.70;99.90
54260;DHT22;40172;53.022;7.012;2023-05-29T05:40:29;10.80;99.90
54260;DHT22;40172;53.022;7.012;2023-05-29T05:42:55;10.80;99.90
54260;DHT22;40172;53.022;7.012;2023-05-29T05:45:20;10.90;99.90
54260;DHT22;40172;53.022;7.012;2023-05-29T05:47:46;10.90;99.90
54260;DHT22;40172;53.022;7.012;2023-05-29T05:50:12;11.00;99.90
54260;DHT22;40172;53.022;7.012;2023-05-29T05:52:38;11.00;99.90
54260;DHT22;40172;53.022;7.012;2023-05-29T05:55:03;11.00;99.90
54260;DHT22;40172;53.022;7.012;2023-05-29T05:57:29;11.10;99.90
54260;DHT22;40172;53.022;7.012;2023-05-29T05:59:58;11.10;99.90
54260;DHT22;40172;53.022;7.012;2023-05-29T06:02:23;11.20;99.90
54260;DHT22;40172;53.022;7.012;2023-05-29T06:04:49;11.30;99.90
54260;DHT22;40172;53.022;7.012;2023-05-29T06:07:15;11.40;99.90
54260;DHT22;40172;53.022;7.012;2023-05-29T06:09:41;11.50;99.90
54260;DHT22;40172;53.022;7.012;2023-05-29T06:12:07;11.70;99.90
54260;DHT22;40172;53.022;7.012;2023-05-29T06:14:34;11.70;99.90
54260;DHT22;40172;53.022;7.012;2023-05-29T06:17:00;11.80;99.90
54260;DHT22;40172;53.022;7.012;2023-05-29T06:19:26;11.90;99.90
54260;DHT22;40172;53.022;7.012;2023-05-29T06:21:51;12.00;99.90
54260;DHT22;40172;53.022;7.012;2023-05-29T06:24:17;12.20;99.90
54260;DHT22;40172;53.022;7.012;2023-05-29T06:26:42;12.20;99.90
54260;DHT22;40172;53.022;7.012;2023-05-29T06:29:08;12.20;99.90
54260;DHT22;40172;53.022;7.012;2023-05-29T06:31:33;12.20;99.90
54260;DHT22;40172;53.022;7.012;2023-05-29T06:33:59;12.30;99.90
54260;DHT22;40172;53.022;7.012;2023-05-29T06:36:24;12.20;99.90
54260;DHT22;40172;53.022;7.012;2023-05-29T06:38:51;12.20;99.90
54260;DHT22;40172;53.022;7.012;2023-05-29T06:41:17;12.20;99.90
54260;DHT22;40172;53.022;7.012;2023-05-29T06:43:43;12.30;99.90
54260;DHT22;40172;53.022;7.012;2023-05-29T06:46:09;12.30;99.90
54260;DHT22;40172;53.022;7.012;2023-05-29T06:48:35;12.50;99.90
54260;DHT22;40172;53.022;7.012;2023-05-29T06:51:02;12.70;99.90
54260;DHT22;40172;53.022;7.012;2023-05-29T06:53:37;12.80;99.90
54260;DHT22;40172;53.022;7.012;2023-05-29T06:56:04;12.80;99.90
54260;DHT22;40172;53.022;7.012;2023-05-29T06:58:30;12.80;99.90
54260;DHT22;40172;53.022;7.012;2023-05-29T07:00:56;12.80;99.90
54260;DHT22;40172;53.022;7.012;2023-05-29T07:03:22;12.90;99.90
54260;DHT22;40172;53.022;7.012;2023-05-29T07:05:48;12.80;99.90
54260;DHT22;40172;53.022;7.012;2023-05-29T07:08:13;12.90;99.90
54260;DHT22;40172;53.022;7.012;2023-05-29T07:10:39;12.90;99.90
54260;DHT22;40172;53.022;7.012;2023-05-29T07:13:04;12.90;99.90
54260;DHT22;40172;53.022;7.012;2023-05-29T07:15:32;13.00;99.90
54260;DHT22;40172;53.022;7.012;2023-05-29T07:17:57;13.00;99.90
54260;DHT22;40172;53.022;7.012;2023-05-29T07:20:23;13.00;99.90
54260;DHT22;40172;53.022;7.012;2023-05-29T07:22:48;13.00;99.90
54260;DHT22;40172;53.022;7.012;2023-05-29T07:25:15;13.00;99.90
54260;DHT22;40172;53.022;7.012;2023-05-29T07:27:40;13.00;99.90
54260;DHT22;40172;53.022;7.012;2023-05-29T07:30:07;13.00;99.90
54260;DHT22;40172;53.022;7.012;2023-05-29T07:32:33;13.00;99.90
54260;DHT22;40172;53.022;7.012;2023-05-29T07:34:59;13.00;99.90
54260;DHT22;40172;53.022;7.012;2023-05-29T07:37:24;13.10;99.90
54260;DHT22;40172;53.022;7.012;2023-05-29T07:39:50;13.20;99.90
54260;DHT22;40172;53.022;7.012;2023-05-29T07:42:15;13.20;99.90
54260;DHT22;40172;53.022;7.012;2023-05-29T07:44:41;13.30;99.90
54260;DHT22;40172;53.022;7.012;2023-05-29T07:47:08;13.40;99.90
54260;DHT22;40172;53.022;7.012;2023-05-29T07:49:34;13.50;99.90
54260;DHT22;40172;53.022;7.012;2023-05-29T07:52:04;13.50;99.90
54260;DHT22;40172;53.022;7.012;2023-05-29T07:54:31;13.60;99.90
54260;DHT22;40172;53.022;7.012;2023-05-29T07:57:00;13.60;99.90
54260;DHT22;40172;53.022;7.012;2023-05-29T07:59:28;13.60;99.90
54260;DHT22;40172;53.022;7.012;2023-05-29T08:01:55;13.60;99.90
54260;DHT22;40172;53.022;7.012;2023-05-29T08:04:24;13.70;99.90
54260;DHT22;40172;53.022;7.012;2023-05-29T08:06:50;13.80;99.90
54260;DHT22;40172;53.022;7.012;2023-05-29T08:09:16;13.00;99.90
54260;DHT22;40172;53.022;7.012;2023-05-29T08:11:42;14.00;99.90
54260;DHT22;40172;53.022;7.012;2023-05-29T08:14:11;13.90;99.90
54260;DHT22;40172;53.022;7.012;2023-05-29T08:16:36;14.00;99.90
54260;DHT22;40172;53.022;7.012;2023-05-29T08:19:02;14.00;99.90
54260;DHT22;40172;53.022;7.012;2023-05-29T08:21:29;13.90;99.90
54260;DHT22;40172;53.022;7.012;2023-05-29T08:23:55;14.00;99.90
54260;DHT22;40172;53.022;7.012;2023-05-29T08:26:21;14.00;99.90
54260;DHT22;40172;53.022;7.012;2023-05-29T08:28:47;14.20;99.90
54260;DHT22;40172;53.022;7.012;2023-05-29T08:31:12;14.30;99.90
54260;DHT22;40172;53.022;7.012;2023-05-29T08:33:38;14.30;99.90
54260;DHT22;40172;53.022;7.012;2023-05-29T08:36:03;14.30;99.90
54260;DHT22;40172;53.022;7.012;2023-05-29T08:38:29;14.30;99.90
54260;DHT22;40172;53.022;7.012;2023-05-29T08:40:56;14.30;99.90
54260;DHT22;40172;53.022;7.012;2023-05-29T08:43:24;14.40;99.90
54260;DHT22;40172;53.022;7.012;2023-05-29T08:45:54;14.50;99.90
54260;DHT22;40172;53.022;7.012;2023-05-29T08:48:24;14.60;99.90
54260;DHT22;40172;53.022;7.012;2023-05-29T08:50:55;14.70;99.90
54260;DHT22;40172;53.022;7.012;2023-05-29T08:53:21;14.80;99.90
54260;DHT22;40172;53.022;7.012;2023-05-29T08:55:48;14.90;99.90
54260;DHT22;40172;53.022;7.012;2023-05-29T08:58:17;14.90;99.90
54260;DHT22;40172;53.022;7.012;2023-05-29T09:00:46;14.90;99.90
54260;DHT22;40172;53.022;7.012;2023-05-29T09:03:12;15.00;99.90
54260;DHT22;40172;53.022;7.012;2023-05-29T09:05:39;15.00;99.90
54260;DHT22;40172;53.022;7.012;2023-05-29T09:08:09;15.00;99.90
54260;DHT22;40172;53.022;7.012;2023-05-29T09:10:39;15.00;99.90
54260;DHT22;40172;53.022;7.012;2023-05-29T09:13:05;15.20;99.90
54260;DHT22;40172;53.022;7.012;2023-05-29T09:15:31;15.00;99.90
54260;DHT22;40172;53.022;7.012;2023-05-29T09:17:58;15.00;99.90
54260;DHT22;40172;53.022;7.012;2023-05-29T09:20:24;15.10;99.90
54260;DHT22;40172;53.022;7.012;2023-05-29T09:25:27;15.00;99.90
54260;DHT22;40172;53.022;7.012;2023-05-29T09:27:58;15.00;99.90
54260;DHT22;40172;53.022;7.012;2023-05-29T09:30:36;15.10;99.90
54260;DHT22;40172;53.022;7.012;2023-05-29T09:33:04;15.30;99.90
54260;DHT22;40172;53.022;7.012;2023-05-29T09:38:13;15.50;99.90
54260;DHT22;40172;53.022;7.012;2023-05-29T09:40:40;15.60;99.90
54260;DHT22;40172;53.022;7.012;2023-05-29T09:45:39;15.50;99.90
54260;DHT22;40172;53.022;7.012;2023-05-29T09:48:06;15.50;99.90
54260;DHT22;40172;53.022;7.012;2023-05-29T09:50:33;15.60;99.90
54260;DHT22;40172;53.022;7.012;2023-05-29T09:53:00;15.70;99.90
54260;DHT22;40172;53.022;7.012;2023-05-29T09:55:27;15.80;99.90
54260;DHT22;40172;53.022;7.012;2023-05-29T09:57:54;15.90;99.90
54260;DHT22;40172;53.022;7.012;2023-05-29T10:00:20;16.00;99.90
54260;DHT22;40172;53.022;7.012;2023-05-29T10:02:48;16.00;99.90
54260;DHT22;40172;53.022;7.012;2023-05-29T10:05:14;16.00;99.90
54260;DHT22;40172;53.022;7.012;2023-05-29T10:07:49;16.00;99.90
54260;DHT22;40172;53.022;7.012;2023-05-29T10:10:17;16.00;99.90
54260;DHT22;40172;53.022;7.012;2023-05-29T10:12:47;16.00;99.90
54260;DHT22;40172;53.022;7.012;2023-05-29T10:15:14;16.10;99.90
54260;DHT22;40172;53.022;7.012;2023-05-29T10:17:44;16.10;99.90
54260;DHT22;40172;53.022;7.012;2023-05-29T10:20:14;16.00;99.90
54260;DHT22;40172;53.022;7.012;2023-05-29T10:22:45;15.80;99.90
54260;DHT22;40172;53.022;7.012;2023-05-29T10:25:13;15.80;99.90
54260;DHT22;40172;53.022;7.012;2023-05-29T10:27:39;15.80;99.90
54260;DHT22;40172;53.022;7.012;2023-05-29T10:33:14;15.90;99.90
54260;DHT22;40172;53.022;7.012;2023-05-29T10:35:51;15.80;99.40
54260;DHT22;40172;53.022;7.012;2023-05-29T10:38:19;15.70;99.90
54260;DHT22;40172;53.022;7.012;2023-05-29T10:40:46;15.60;99.90
54260;DHT22;40172;53.022;7.012;2023-05-29T10:43:31;15.50;99.90
54260;DHT22;40172;53.022;7.012;2023-05-29T10:45:57;16.60;99.90
54260;DHT22;40172;53.022;7.012;2023-05-29T10:50:54;15.50;99.90
54260;DHT22;40172;53.022;7.012;2023-05-29T10:53:30;15.60;99.90
54260;DHT22;40172;53.022;7.012;2023-05-29T10:55:56;15.70;99.90
54260;DHT22;40172;53.022;7.012;2023-05-29T10:58:25;15.70;99.90
54260;DHT22;40172;53.022;7.012;2023-05-29T11:00:52;15.80;99.90
54260;DHT22;40172;53.022;7.012;2023-05-29T11:03:32;16.00;99.90
54260;DHT22;40172;53.022;7.012;2023-05-29T11:08:45;15.90;98.90
54260;DHT22;40172;53.022;7.012;2023-05-29T11:11:12;15.90;99.90
54260;DHT22;40172;53.022;7.012;2023-05-29T11:13:39;15.80;99.90
54260;DHT22;40172;53.022;7.012;2023-05-29T11:16:19;15.70;99.90
54260;DHT22;40172;53.022;7.012;2023-05-29T11:18:47;15.70;99.90
54260;DHT22;40172;53.022;7.012;2023-05-29T11:24:35;15.60;99.90
54260;DHT22;40172;53.022;7.012;2023-05-29T11:27:03;15.60;99.90
54260;DHT22;40172;53.022;7.012;2023-05-29T11:29:33;15.60;99.90
54260;DHT22;40172;53.022;7.012;2023-05-29T11:32:05;15.60;99.90
54260;DHT22;40172;53.022;7.012;2023-05-29T11:34:32;15.60;99.90
54260;DHT22;40172;53.022;7.012;2023-05-29T11:37:02;15.70;99.90
54260;DHT22;40172;53.022;7.012;2023-05-29T11:39:28;15.80;99.90
54260;DHT22;40172;53.022;7.012;2023-05-29T11:41:55;15.90;99.90
54260;DHT22;40172;53.022;7.012;2023-05-29T11:44:24;15.90;99.90
54260;DHT22;40172;53.022;7.012;2023-05-29T11:47:07;15.90;99.90
54260;DHT22;40172;53.022;7.012;2023-05-29T11:49:35;15.90;99.90
54260;DHT22;40172;53.022;7.012;2023-05-29T11:52:11;15.80;99.90
54260;DHT22;40172;53.022;7.012;2023-05-29T11:54:37;15.90;99.90
54260;DHT22;40172;53.022;7.012;2023-05-29T11:57:03;15.90;99.70
54260;DHT22;40172;53.022;7.012;2023-05-29T11:59:32;15.90;99.90
54260;DHT22;40172;53.022;7.012;2023-05-29T12:01:58;15.90;99.90
54260;DHT22;40172;53.022;7.012;2023-05-29T12:04:24;15.90;99.90
54260;DHT22;40172;53.022;7.012;2023-05-29T12:06:50;15.90;99.90
54260;DHT22;40172;53.022;7.012;2023-05-29T12:09:29;15.90;99.90
54260;DHT22;40172;53.022;7.012;2023-05-29T12:12:04;15.80;99.90
54260;DHT22;40172;53.022;7.012;2023-05-29T12:14:32;15.70;99.90
54260;DHT22;40172;53.022;7.012;2023-05-29T12:16:58;15.70;99.90
54260;DHT22;40172;53.022;7.012;2023-05-29T12:19:24;15.60;99.90
54260;DHT22;40172;53.022;7.012;2023-05-29T12:21:50;15.60;99.90
54260;DHT22;40172;53.022;7.012;2023-05-29T12:24:19;15.70;99.90
54260;DHT22;40172;53.022;7.012;2023-05-29T12:26:44;15.70;99.30
54260;DHT22;40172;53.022;7.012;2023-05-29T12:29:12;15.70;99.90
54260;DHT22;40172;53.022;7.012;2023-05-29T12:31:38;15.70;99.60
54260;DHT22;40172;53.022;7.012;2023-05-29T12:36:35;15.70;99.90
54260;DHT22;40172;53.022;7.012;2023-05-29T12:39:06;15.60;99.90
54260;DHT22;40172;53.022;7.012;2023-05-29T12:41:34;15.60;99.90
54260;DHT22;40172;53.022;7.012;2023-05-29T12:44:05;15.70;99.90
54260;DHT22;40172;53.022;7.012;2023-05-29T12:46:37;15.70;98.90
54260;DHT22;40172;53.022;7.012;2023-05-29T12:49:16;15.70;99.40
54260;DHT22;40172;53.022;7.012;2023-05-29T12:51:45;15.80;99.90
54260;DHT22;40172;53.022;7.012;2023-05-29T12:54:16;15.80;99.80
54260;DHT22;40172;53.022;7.012;2023-05-29T12:56:42;15.80;99.10
54260;DHT22;40172;53.022;7.012;2023-05-29T12:59:09;15.80;99.90
54260;DHT22;40172;53.022;7.012;2023-05-29T13:01:36;15.80;99.80
54260;DHT22;40172;53.022;7.012;2023-05-29T13:04:04;15.80;98.50
54260;DHT22;40172;53.022;7.012;2023-05-29T13:06:32;15.70;99.30
54260;DHT22;40172;53.022;7.012;2023-05-29T13:08:58;15.70;99.00
54260;DHT22;40172;53.022;7.012;2023-05-29T13:11:24;15.80;99.20
54260;DHT22;40172;53.022;7.012;2023-05-29T13:13:51;15.80;99.10
54260;DHT22;40172;53.022;7.012;2023-05-29T13:16:16;15.90;99.10
54260;DHT22;40172;53.022;7.012;2023-05-29T13:18:43;16.00;99.50
54260;DHT22;40172;53.022;7.012;2023-05-29T13:21:09;16.00;98.10
54260;DHT22;40172;53.022;7.012;2023-05-29T13:23:35;16.00;98.40
54260;DHT22;40172;53.022;7.012;2023-05-29T13:26:01;16.10;98.70
54260;DHT22;40172;53.022;7.012;2023-05-29T13:28:26;16.10;97.90
54260;DHT22;40172;53.022;7.012;2023-05-29T13:30:52;16.10;97.60
54260;DHT22;40172;53.022;7.012;2023-05-29T13:33:18;16.10;98.10
54260;DHT22;40172;53.022;7.012;2023-05-29T13:35:43;16.00;98.40
54260;DHT22;40172;53.022;7.012;2023-05-29T13:38:09;16.10;98.30
54260;DHT22;40172;53.022;7.012;2023-05-29T13:40:34;16.10;97.30
54260;DHT22;40172;53.022;7.012;2023-05-29T13:43:01;16.00;97.70
54260;DHT22;40172;53.022;7.012;2023-05-29T13:45:26;15.90;98.40
54260;DHT22;40172;53.022;7.012;2023-05-29T13:47:54;15.90;97.80
54260;DHT22;40172;53.022;7.012;2023-05-29T13:50:19;15.90;97.10
54260;DHT22;40172;53.022;7.012;2023-05-29T13:52:47;15.90;97.00
54260;DHT22;40172;53.022;7.012;2023-05-29T13:55:13;15.80;96.70
54260;DHT22;40172;53.022;7.012;2023-05-29T13:57:38;15.70;96.30
54260;DHT22;40172;53.022;7.012;2023-05-29T14:00:05;16.30;96.20
54260;DHT22;40172;53.022;7.012;2023-05-29T14:02:31;15.70;95.90
54260;DHT22;40172;53.022;7.012;2023-05-29T14:04:57;15.70;95.80
54260;DHT22;40172;53.022;7.012;2023-05-29T14:07:23;15.70;96.00
54260;DHT22;40172;53.022;7.012;2023-05-29T14:09:49;15.70;96.30
54260;DHT22;40172;53.022;7.012;2023-05-29T14:12:15;15.60;96.90
54260;DHT22;40172;53.022;7.012;2023-05-29T14:14:41;15.60;97.10
54260;DHT22;40172;53.022;7.012;2023-05-29T14:17:06;15.60;97.70
54260;DHT22;40172;53.022;7.012;2023-05-29T14:19:32;15.70;98.30
54260;DHT22;40172;53.022;7.012;2023-05-29T14:21:57;15.70;98.50
54260;DHT22;40172;53.022;7.012;2023-05-29T14:24:25;15.80;98.70
54260;DHT22;40172;53.022;7.012;2023-05-29T14:26:51;15.90;98.50
54260;DHT22;40172;53.022;7.012;2023-05-29T14:29:17;15.90;99.50
54260;DHT22;40172;53.022;7.012;2023-05-29T14:31:43;15.90;98.90
54260;DHT22;40172;53.022;7.012;2023-05-29T14:34:09;16.00;98.90
54260;DHT22;40172;53.022;7.012;2023-05-29T14:36:35;15.90;97.80
54260;DHT22;40172;53.022;7.012;2023-05-29T14:39:01;15.90;96.60
54260;DHT22;40172;53.022;7.012;2023-05-29T14:41:27;15.80;96.40
54260;DHT22;40172;53.022;7.012;2023-05-29T14:43:53;15.80;96.60
54260;DHT22;40172;53.022;7.012;2023-05-29T14:46:18;15.70;96.00
54260;DHT22;40172;53.022;7.012;2023-05-29T14:48:44;15.70;96.40
54260;DHT22;40172;53.022;7.012;2023-05-29T14:51:12;15.70;96.90
54260;DHT22;40172;53.022;7.012;2023-05-29T14:53:38;15.60;96.90
54260;DHT22;40172;53.022;7.012;2023-05-29T14:56:05;15.60;96.60
54260;DHT22;40172;53.022;7.012;2023-05-29T14:58:30;15.60;97.60
54260;DHT22;40172;53.022;7.012;2023-05-29T15:00:56;15.70;96.60
54260;DHT22;40172;53.022;7.012;2023-05-29T15:03:23;15.70;96.60
54260;DHT22;40172;53.022;7.012;2023-05-29T15:05:52;15.60;96.60
54260;DHT22;40172;53.022;7.012;2023-05-29T15:08:18;15.60;96.70
54260;DHT22;40172;53.022;7.012;2023-05-29T15:10:44;15.60;97.70
54260;DHT22;40172;53.022;7.012;2023-05-29T15:13:09;15.60;97.50
54260;DHT22;40172;53.022;7.012;2023-05-29T15:15:35;15.70;96.50
54260;DHT22;40172;53.022;7.012;2023-05-29T15:18:00;15.70;95.30
54260;DHT22;40172;53.022;7.012;2023-05-29T15:20:27;15.60;94.30
54260;DHT22;40172;53.022;7.012;2023-05-29T15:22:53;15.70;94.10
54260;DHT22;40172;53.022;7.012;2023-05-29T15:25:20;15.70;93.90
54260;DHT22;40172;53.022;7.012;2023-05-29T15:27:46;16.20;93.50
54260;DHT22;40172;53.022;7.012;2023-05-29T15:30:14;15.80;92.80
54260;DHT22;40172;53.022;7.012;2023-05-29T15:32:41;15.70;92.90
54260;DHT22;40172;53.022;7.012;2023-05-29T15:35:12;15.70;92.20
54260;DHT22;40172;53.022;7.012;2023-05-29T15:37:39;15.70;91.00
54260;DHT22;40172;53.022;7.012;2023-05-29T15:40:06;15.60;90.70
54260;DHT22;40172;53.022;7.012;2023-05-29T15:42:32;15.60;90.60
54260;DHT22;40172;53.022;7.012;2023-05-29T15:44:58;15.70;91.30
54260;DHT22;40172;53.022;7.012;2023-05-29T15:47:23;15.70;90.40
54260;DHT22;40172;53.022;7.012;2023-05-29T15:49:50;15.60;89.00
54260;DHT22;40172;53.022;7.012;2023-05-29T15:52:16;15.60;89.10
54260;DHT22;40172;53.022;7.012;2023-05-29T15:54:41;15.60;89.40
54260;DHT22;40172;53.022;7.012;2023-05-29T15:57:07;15.60;88.50